sensor_id;sensor_type;location;lat;lon;timestamp;pressure;altitude;pressure_sealevel;temperature;humidity
64086;BME280;50333;47.436;21.390;2023-02-11T00:02:37;102720.94;;;-0.78;58.21
64086;BME280;50333;47.436;21.390;2023-02-11T00:06:07;102720.72;;;-0.65;57.90
64086;BME280;50333;47.436;21.390;2023-02-11T00:09:17;102725.84;;;-0.65;57.52
64086;BME280;50333;47.436;21.390;2023-02-11T00:12:40;102717.09;;;-0.93;57.97
64086;BME280;50333;47.436;21.390;2023-02-11T00:16:21;102719.06;;;-0.76;57.78
64086;BME280;50333;47.436;21.390;2023-02-11T00:19:23;102716.06;;;-0.81;57.94
64086;BME280;50333;47.436;21.390;2023-02-11T00:22:45;102715.13;;;-0.49;57.37
64086;BME280;50333;47.436;21.390;2023-02-11T00:25:54;102708.63;;;-0.63;57.59
64086;BME280;50333;47.436;21.390;2023-02-11T00:29:23;102712.72;;;-0.50;57.50
64086;BME280;50333;47.436;21.390;2023-02-11T00:32:25;102712.62;;;-0.39;57.06
64086;BME280;50333;47.436;21.390;2023-02-11T00:35:55;102725.72;;;-0.63;57.27
64086;BME280;50333;47.436;21.390;2023-02-11T00:39:25;102714.37;;;-0.70;57.28
64086;BME280;50333;47.436;21.390;2023-02-11T00:42:56;102712.59;;;-0.80;57.53
64086;BME280;50333;47.436;21.390;2023-02-11T00:46:13;102711.75;;;-0.49;56.56
64086;BME280;50333;47.436;21.390;2023-02-11T00:49:39;102700.69;;;-0.81;57.32
64086;BME280;50333;47.436;21.390;2023-02-11T00:53:10;102687.16;;;-0.71;57.25
64086;BME280;50333;47.436;21.390;2023-02-11T00:56:27;102685.72;;;-1.06;57.88
64086;BME280;50333;47.436;21.390;2023-02-11T01:00:05;102692.69;;;-0.97;57.54
64086;BME280;50333;47.436;21.390;2023-02-11T01:03:15;102689.34;;;-0.88;57.49
64086;BME280;50333;47.436;21.390;2023-02-11T01:06:46;102684.31;;;-0.99;57.80
64086;BME280;50333;47.436;21.390;2023-02-11T01:09:54;102685.06;;;-1.08;58.13
64086;BME280;50333;47.436;21.390;2023-02-11T01:13:26;102672.34;;;-0.89;58.00
64086;BME280;50333;47.436;21.390;2023-02-11T01:16:55;102676.38;;;-0.96;58.36
64086;BME280;50333;47.436;21.390;2023-02-11T01:20:26;102678.00;;;-1.58;59.92
64086;BME280;50333;47.436;21.390;2023-02-11T01:23:28;102676.63;;;-1.41;59.84
64086;BME280;50333;47.436;21.390;2023-02-11T01:26:44;102678.25;;;-1.40;59.65
64086;BME280;50333;47.436;21.390;2023-02-11T01:30:15;102668.50;;;-1.46;60.21
64086;BME280;50333;47.436;21.390;2023-02-11T01:33:49;102663.94;;;-1.64;60.87
64086;BME280;50333;47.436;21.390;2023-02-11T01:36:55;102664.22;;;-1.78;61.02
64086;BME280;50333;47.436;21.390;2023-02-11T01:40:14;102659.78;;;-1.76;61.15
64086;BME280;50333;47.436;21.390;2023-02-11T01:43:49;102663.31;;;-2.21;62.62
64086;BME280;50333;47.436;21.390;2023-02-11T01:46:59;102645.06;;;-1.84;61.80
64086;BME280;50333;47.436;21.390;2023-02-11T01:50:15;102650.09;;;-1.94;62.70
64086;BME280;50333;47.436;21.390;2023-02-11T01:53:47;102650.87;;;-2.14;62.38
64086;BME280;50333;47.436;21.390;2023-02-11T01:57:31;102651.22;;;-1.86;62.19
64086;BME280;50333;47.436;21.390;2023-02-11T02:01:00;102652.12;;;-3.22;66.17
64086;BME280;50333;47.436;21.390;2023-02-11T02:04:21;102642.09;;;-2.67;65.15
64086;BME280;50333;47.436;21.390;2023-02-11T02:08:09;102644.19;;;-2.60;64.91
64086;BME280;50333;47.436;21.390;2023-02-11T02:11:12;102639.78;;;-2.70;65.59
64086;BME280;50333;47.436;21.390;2023-02-11T02:14:28;102629.31;;;-2.55;64.09
64086;BME280;50333;47.436;21.390;2023-02-11T02:39:44;102609.03;;;-2.13;63.82
64086;BME280;50333;47.436;21.390;2023-02-11T02:42:57;102620.16;;;-2.58;65.42
64086;BME280;50333;47.436;21.390;2023-02-11T02:46:18;102620.41;;;-2.06;63.78
64086;BME280;50333;47.436;21.390;2023-02-11T02:49:49;102630.50;;;-2.59;65.48
64086;BME280;50333;47.436;21.390;2023-02-11T02:53:25;102617.53;;;-2.24;64.42
64086;BME280;50333;47.436;21.390;2023-02-11T03:05:00;102610.78;;;-2.80;65.97
64086;BME280;50333;47.436;21.390;2023-02-11T03:08:31;102604.16;;;-2.71;65.84
64086;BME280;50333;47.436;21.390;2023-02-11T03:12:00;102599.59;;;-2.56;65.94
64086;BME280;50333;47.436;21.390;2023-02-11T03:15:04;102586.22;;;-2.37;65.33
64086;BME280;50333;47.436;21.390;2023-02-11T03:18:35;102587.78;;;-2.91;66.60
64086;BME280;50333;47.436;21.390;2023-02-11T03:21:49;102586.37;;;-3.41;68.25
64086;BME280;50333;47.436;21.390;2023-02-11T03:25:33;102570.50;;;-3.22;68.49
64086;BME280;50333;47.436;21.390;2023-02-11T03:28:48;102579.63;;;-3.42;68.20
64086;BME280;50333;47.436;21.390;2023-02-11T03:32:27;102583.97;;;-3.31;67.20
64086;BME280;50333;47.436;21.390;2023-02-11T03:35:46;102583.50;;;-3.13;67.75
64086;BME280;50333;47.436;21.390;2023-02-11T03:39:23;102594.06;;;-3.65;69.03
64086;BME280;50333;47.436;21.390;2023-02-11T03:42:49;102590.69;;;-3.07;67.54
64086;BME280;50333;47.436;21.390;2023-02-11T03:46:27;102590.88;;;-2.42;65.21
64086;BME280;50333;47.436;21.390;2023-02-11T03:49:44;102582.63;;;-2.35;64.52
64086;BME280;50333;47.436;21.390;2023-02-11T03:53:21;102586.19;;;-2.26;64.18
64086;BME280;50333;47.436;21.390;2023-02-11T03:56:33;102579.91;;;-1.90;62.69
64086;BME280;50333;47.436;21.390;2023-02-11T04:00:11;102575.78;;;-2.02;62.59
64086;BME280;50333;47.436;21.390;2023-02-11T04:03:34;102570.03;;;-2.15;62.59
64086;BME280;50333;47.436;21.390;2023-02-11T04:06:42;102561.75;;;-2.40;62.83
64086;BME280;50333;47.436;21.390;2023-02-11T04:10:20;102561.28;;;-2.13;62.24
64086;BME280;50333;47.436;21.390;2023-02-11T04:13:28;102556.44;;;-2.59;63.94
64086;BME280;50333;47.436;21.390;2023-02-11T04:16:53;102559.94;;;-3.28;65.74
64086;BME280;50333;47.436;21.390;2023-02-11T04:20:22;102558.78;;;-3.01;66.20
64086;BME280;50333;47.436;21.390;2023-02-11T04:23:30;102541.16;;;-3.38;67.42
64086;BME280;50333;47.436;21.390;2023-02-11T04:27:00;102533.97;;;-3.45;67.56
64086;BME280;50333;47.436;21.390;2023-02-11T04:30:13;102529.69;;;-3.33;66.79
64086;BME280;50333;47.436;21.390;2023-02-11T04:33:45;102521.69;;;-3.28;66.92
64086;BME280;50333;47.436;21.390;2023-02-11T04:36:53;102518.69;;;-3.22;67.02
64086;BME280;50333;47.436;21.390;2023-02-11T04:40:22;102515.63;;;-3.61;67.39
64086;BME280;50333;47.436;21.390;2023-02-11T04:43:30;102515.81;;;-3.87;69.22
64086;BME280;50333;47.436;21.390;2023-02-11T04:47:00;102519.69;;;-3.47;68.18
64086;BME280;50333;47.436;21.390;2023-02-11T04:50:01;102507.06;;;-3.26;67.53
64086;BME280;50333;47.436;21.390;2023-02-11T04:53:30;102501.97;;;-3.60;67.24
64086;BME280;50333;47.436;21.390;2023-02-11T04:56:38;102498.09;;;-3.77;68.11
64086;BME280;50333;47.436;21.390;2023-02-11T05:00:09;102498.78;;;-3.86;68.77
64086;BME280;50333;47.436;21.390;2023-02-11T05:03:17;102493.97;;;-3.55;67.92
64086;BME280;50333;47.436;21.390;2023-02-11T05:06:46;102487.25;;;-3.56;68.29
64086;BME280;50333;47.436;21.390;2023-02-11T05:09:56;102491.09;;;-3.28;67.82
64086;BME280;50333;47.436;21.390;2023-02-11T05:13:25;102487.47;;;-3.60;67.90
64086;BME280;50333;47.436;21.390;2023-02-11T05:16:33;102492.22;;;-3.77;69.76
64086;BME280;50333;47.436;21.390;2023-02-11T05:20:03;102491.88;;;-4.20;70.05
64086;BME280;50333;47.436;21.390;2023-02-11T05:23:05;102488.44;;;-4.07;70.58
64086;BME280;50333;47.436;21.390;2023-02-11T05:26:33;102499.44;;;-4.55;71.24
64086;BME280;50333;47.436;21.390;2023-02-11T05:29:41;102505.06;;;-4.14;69.86
64086;BME280;50333;47.436;21.390;2023-02-11T05:33:11;102508.88;;;-3.73;69.21
64086;BME280;50333;47.436;21.390;2023-02-11T05:36:29;102517.50;;;-3.41;67.65
64086;BME280;50333;47.436;21.390;2023-02-11T05:39:51;102532.34;;;-3.46;67.62
64086;BME280;50333;47.436;21.390;2023-02-11T05:42:59;102537.88;;;-3.52;68.02
64086;BME280;50333;47.436;21.390;2023-02-11T05:46:31;102546.75;;;-2.99;66.02
64086;BME280;50333;47.436;21.390;2023-02-11T05:49:38;102543.16;;;-3.08;65.61
64086;BME280;50333;47.436;21.390;2023-02-11T05:53:07;102546.88;;;-3.24;66.53
64086;BME280;50333;47.436;21.390;2023-02-11T05:56:15;102541.97;;;-3.27;65.81
64086;BME280;50333;47.436;21.390;2023-02-11T05:59:43;102526.22;;;-3.32;66.21
64086;BME280;50333;47.436;21.390;2023-02-11T06:02:58;102536.97;;;-3.62;67.63
64086;BME280;50333;47.436;21.390;2023-02-11T06:06:27;102537.22;;;-3.43;67.61
64086;BME280;50333;47.436;21.390;2023-02-11T06:09:37;102539.53;;;-3.51;67.92
64086;BME280;50333;47.436;21.390;2023-02-11T06:13:01;102537.09;;;-3.30;67.05
64086;BME280;50333;47.436;21.390;2023-02-11T06:16:33;102537.00;;;-3.17;66.64
64086;BME280;50333;47.436;21.390;2023-02-11T06:19:42;102530.44;;;-3.77;67.11
64086;BME280;50333;47.436;21.390;2023-02-11T06:23:31;102527.84;;;-3.31;67.66
64086;BME280;50333;47.436;21.390;2023-02-11T06:27:04;102536.19;;;-3.17;67.67
64086;BME280;50333;47.436;21.390;2023-02-11T06:30:23;102524.63;;;-2.67;65.40
64086;BME280;50333;47.436;21.390;2023-02-11T06:34:06;102525.72;;;-3.03;66.05
64086;BME280;50333;47.436;21.390;2023-02-11T06:37:42;102514.28;;;-3.20;66.99
64086;BME280;50333;47.436;21.390;2023-02-11T06:41:55;102519.81;;;-2.92;66.15
64086;BME280;50333;47.436;21.390;2023-02-11T07:25:04;102452.97;;;-2.86;69.01
64086;BME280;50333;47.436;21.390;2023-02-11T07:28:36;102448.53;;;-3.28;70.00
64086;BME280;50333;47.436;21.390;2023-02-11T07:31:47;102445.41;;;-2.76;69.36
64086;BME280;50333;47.436;21.390;2023-02-11T07:35:33;102451.53;;;-2.68;68.77
64086;BME280;50333;47.436;21.390;2023-02-11T07:38:52;102453.66;;;-1.98;67.65
64086;BME280;50333;47.436;21.390;2023-02-11T07:42:34;102448.72;;;-2.11;67.55
64086;BME280;50333;47.436;21.390;2023-02-11T07:45:53;102449.28;;;-2.29;67.14
64086;BME280;50333;47.436;21.390;2023-02-11T07:49:28;102437.00;;;-1.93;66.79
64086;BME280;50333;47.436;21.390;2023-02-11T07:52:29;102446.03;;;-1.27;65.21
64086;BME280;50333;47.436;21.390;2023-02-11T07:56:17;102456.16;;;-2.08;67.06
64086;BME280;50333;47.436;21.390;2023-02-11T07:59:33;102451.16;;;-1.58;66.40
64086;BME280;50333;47.436;21.390;2023-02-11T08:10:26;102441.38;;;-0.44;63.46
64086;BME280;50333;47.436;21.390;2023-02-11T08:14:16;102445.44;;;-0.51;63.28
64086;BME280;50333;47.436;21.390;2023-02-11T08:17:56;102433.91;;;-0.17;62.92
64086;BME280;50333;47.436;21.390;2023-02-11T08:22:08;102435.19;;;-0.51;63.35
64086;BME280;50333;47.436;21.390;2023-02-11T08:26:13;102445.03;;;-0.66;63.66
64086;BME280;50333;47.436;21.390;2023-02-11T08:30:17;102449.75;;;-0.81;64.25
64086;BME280;50333;47.436;21.390;2023-02-11T08:34:27;102457.56;;;-0.24;63.74
64086;BME280;50333;47.436;21.390;2023-02-11T08:38:49;102461.13;;;0.13;62.95
64086;BME280;50333;47.436;21.390;2023-02-11T08:43:18;102462.81;;;-0.15;62.72
64086;BME280;50333;47.436;21.390;2023-02-11T08:47:29;102455.72;;;0.16;62.35
64086;BME280;50333;47.436;21.390;2023-02-11T09:02:13;102440.63;;;1.32;61.08
64086;BME280;50333;47.436;21.390;2023-02-11T09:06:03;102441.59;;;1.75;59.24
64086;BME280;50333;47.436;21.390;2023-02-11T09:09:49;102439.41;;;1.80;59.83
64086;BME280;50333;47.436;21.390;2023-02-11T09:17:05;102434.81;;;1.92;58.78
64086;BME280;50333;47.436;21.390;2023-02-11T09:20:14;102451.59;;;1.78;59.77
64086;BME280;50333;47.436;21.390;2023-02-11T09:23:16;102449.25;;;1.67;60.04
64086;BME280;50333;47.436;21.390;2023-02-11T09:26:28;102433.72;;;1.50;60.37
64086;BME280;50333;47.436;21.390;2023-02-11T09:29:45;102435.53;;;0.86;62.81
64086;BME280;50333;47.436;21.390;2023-02-11T09:33:00;102423.81;;;0.84;63.31
64086;BME280;50333;47.436;21.390;2023-02-11T09:36:27;102418.00;;;0.82;63.58
64086;BME280;50333;47.436;21.390;2023-02-11T09:39:38;102424.84;;;1.27;62.36
64086;BME280;50333;47.436;21.390;2023-02-11T09:43:05;102423.66;;;0.85;64.12
64086;BME280;50333;47.436;21.390;2023-02-11T09:46:39;102411.72;;;1.30;62.94
64086;BME280;50333;47.436;21.390;2023-02-11T09:50:34;102408.19;;;1.13;63.74
64086;BME280;50333;47.436;21.390;2023-02-11T09:57:56;102408.69;;;0.35;65.73
64086;BME280;50333;47.436;21.390;2023-02-11T10:05:21;102389.69;;;1.09;64.21
64086;BME280;50333;47.436;21.390;2023-02-11T10:25:23;102356.25;;;2.06;61.87
64086;BME280;50333;47.436;21.390;2023-02-11T10:29:12;102352.34;;;2.36;61.46
64086;BME280;50333;47.436;21.390;2023-02-11T10:37:04;102345.22;;;2.22;60.54
64086;BME280;50333;47.436;21.390;2023-02-11T10:40:41;102342.91;;;2.53;59.47
64086;BME280;50333;47.436;21.390;2023-02-11T10:45:02;102335.31;;;2.35;59.56
64086;BME280;50333;47.436;21.390;2023-02-11T10:48:42;102323.59;;;2.82;58.51
64086;BME280;50333;47.436;21.390;2023-02-11T10:51:39;102318.47;;;2.98;58.61
64086;BME280;50333;47.436;21.390;2023-02-11T10:54:22;102314.75;;;2.68;58.17
64086;BME280;50333;47.436;21.390;2023-02-11T10:56:58;102313.59;;;2.54;58.79
64086;BME280;50333;47.436;21.390;2023-02-11T10:59:37;102309.72;;;2.42;59.37
64086;BME280;50333;47.436;21.390;2023-02-11T11:02:29;102291.25;;;2.79;59.32
64086;BME280;50333;47.436;21.390;2023-02-11T11:05:36;102291.66;;;3.49;57.12
64086;BME280;50333;47.436;21.390;2023-02-11T11:08:43;102288.47;;;3.22;57.86
64086;BME280;50333;47.436;21.390;2023-02-11T11:12:44;102285.56;;;3.33;57.45
64086;BME280;50333;47.436;21.390;2023-02-11T11:17:38;102270.31;;;2.66;58.87
64086;BME280;50333;47.436;21.390;2023-02-11T11:21:54;102263.31;;;3.32;57.54
64086;BME280;50333;47.436;21.390;2023-02-11T11:25:44;102262.25;;;3.66;56.92
64086;BME280;50333;47.436;21.390;2023-02-11T11:29:42;102264.37;;;2.74;57.94
64086;BME280;50333;47.436;21.390;2023-02-11T11:32:49;102258.91;;;2.69;57.81
64086;BME280;50333;47.436;21.390;2023-02-11T11:36:07;102249.06;;;3.05;56.97
64086;BME280;50333;47.436;21.390;2023-02-11T11:38:45;102250.81;;;3.13;56.95
64086;BME280;50333;47.436;21.390;2023-02-11T11:41:52;102240.81;;;3.10;57.28
64086;BME280;50333;47.436;21.390;2023-02-11T11:44:32;102236.50;;;3.89;55.12
64086;BME280;50333;47.436;21.390;2023-02-11T11:51:09;102212.94;;;3.69;55.48
64086;BME280;50333;47.436;21.390;2023-02-11T11:54:20;102195.38;;;3.65;55.50
64086;BME280;50333;47.436;21.390;2023-02-11T11:58:21;102199.53;;;3.66;56.35
64086;BME280;50333;47.436;21.390;2023-02-11T12:09:25;102193.69;;;3.40;56.19
64086;BME280;50333;47.436;21.390;2023-02-11T12:17:33;102183.28;;;3.88;54.79
64086;BME280;50333;47.436;21.390;2023-02-11T12:25:53;102170.59;;;3.87;54.98
64086;BME280;50333;47.436;21.390;2023-02-11T12:45:22;102142.34;;;4.31;53.34
64086;BME280;50333;47.436;21.390;2023-02-11T12:48:19;102133.62;;;4.32;52.80
64086;BME280;50333;47.436;21.390;2023-02-11T12:54:26;102110.34;;;4.70;52.57
64086;BME280;50333;47.436;21.390;2023-02-11T12:57:58;102118.00;;;4.64;52.54
64086;BME280;50333;47.436;21.390;2023-02-11T13:05:42;102106.50;;;4.51;52.79
64086;BME280;50333;47.436;21.390;2023-02-11T13:08:24;102093.03;;;4.56;52.83
64086;BME280;50333;47.436;21.390;2023-02-11T13:11:17;102075.28;;;4.98;52.28
64086;BME280;50333;47.436;21.390;2023-02-11T13:14:31;102065.91;;;5.12;51.39
64086;BME280;50333;47.436;21.390;2023-02-11T13:17:23;102053.38;;;4.94;51.50
64086;BME280;50333;47.436;21.390;2023-02-11T13:20:34;102050.47;;;4.52;51.84
64086;BME280;50333;47.436;21.390;2023-02-11T13:24:43;102034.94;;;4.82;51.69
64086;BME280;50333;47.436;21.390;2023-02-11T13:28:16;102038.44;;;4.74;51.49
64086;BME280;50333;47.436;21.390;2023-02-11T13:31:51;102027.03;;;4.68;51.79
64086;BME280;50333;47.436;21.390;2023-02-11T13:35:38;102020.37;;;5.32;50.25
64086;BME280;50333;47.436;21.390;2023-02-11T13:39:19;102028.50;;;4.93;50.31
64086;BME280;50333;47.436;21.390;2023-02-11T13:43:01;102022.03;;;5.18;50.04
64086;BME280;50333;47.436;21.390;2023-02-11T13:47:25;102025.97;;;5.14;50.24
64086;BME280;50333;47.436;21.390;2023-02-11T13:50:47;102028.44;;;5.44;50.00
64086;BME280;50333;47.436;21.390;2023-02-11T13:54:26;102038.19;;;5.42;50.01
64086;BME280;50333;47.436;21.390;2023-02-11T14:09:41;102014.28;;;5.61;48.88
64086;BME280;50333;47.436;21.390;2023-02-11T14:14:24;102012.19;;;5.50;49.04
64086;BME280;50333;47.436;21.390;2023-02-11T14:16:33;102000.66;;;5.31;49.48
64086;BME280;50333;47.436;21.390;2023-02-11T14:19:45;102010.31;;;5.22;49.58
64086;BME280;50333;47.436;21.390;2023-02-11T14:23:30;101994.88;;;5.51;49.16
64086;BME280;50333;47.436;21.390;2023-02-11T14:28:00;101992.06;;;5.74;48.79
64086;BME280;50333;47.436;21.390;2023-02-11T14:39:13;101994.31;;;5.55;49.78
64086;BME280;50333;47.436;21.390;2023-02-11T14:43:11;101993.69;;;5.75;49.39
64086;BME280;50333;47.436;21.390;2023-02-11T14:47:16;101987.62;;;5.67;49.74
64086;BME280;50333;47.436;21.390;2023-02-11T14:55:33;101982.87;;;5.21;50.54
64086;BME280;50333;47.436;21.390;2023-02-11T14:59:19;101974.38;;;5.06;51.02
64086;BME280;50333;47.436;21.390;2023-02-11T15:06:51;101976.00;;;5.28;50.93
